Brilliance Of The Seas — C6SJ5 — position and weather

sailwx.info

Track history (hours):
 
Tides and Currents Weather Stations Pressure Air Temp Water Temp Dewpoint Dewpoint Depression Visibility Wind Speed Wind Dir Waves Ship Positions

Brilliance Of The Seas

Operator: Royal Caribbean Cruises Ltd

Last reported at 2017-Jun-28 17:00 UTC. Time now 2017-Jun-28 17:13 UTC.
Position N 38°20' E 014°39'.

Type: Ship. MMSI: 311361000.

Date/timePositionNaut miles runAvg speedWind from/ knotsBaromVisibWave heightAir tempDewpointWater temp
2017-Jun-28 17:00N 38°20' E 014°39'1619.3
2017-Jun-28 16:10N 38°19' E 014°60'319.4
2017-Jun-28 16:00N 38°19' E 015°04'1019.4
2017-Jun-28 15:30N 38°20' E 015°16'1019.1
2017-Jun-28 15:00N 38°20' E 015°28'9 9.2
2017-Jun-28 13:58N 38°14' E 015°37'2316.4
2017-Jun-28 12:34N 37°52' E 015°48'519.3
2017-Jun-28 12:19N 37°52' E 015°54'11317.8
2017-Jun-28 06:00N 39°00' E 017°48'2422.6 210 / 13
2017-Jun-28 04:56N 39°19' E 018°07'819.1
2017-Jun-28 04:30N 39°25' E 018°14'1019.0
2017-Jun-28 03:59N 39°32' E 018°23'919.0
2017-Jun-28 03:30N 39°41' E 018°28'1018.9
2017-Jun-28 02:59N 39°50' E 018°32'5217.5
2017-Jun-28 00:00N 40°42' E 018°36'6622.1 170 / 261011.0 5.4 26.023.226.0
2017-Jun-27 21:00N 41°48' E 018°30'119 5.7 130 / 171011.010.8 26.0 27.0
2017-Jun-27 00:00N 42°42' E 016°06'2217.0 260 / 121013.0 5.4 25.023.625.0
2017-Jun-26 22:40N 42°54' E 015°40'518.8
2017-Jun-26 22:25N 42°56' E 015°34'918.8
2017-Jun-26 21:58N 43°00' E 015°24'1219.3
2017-Jun-26 21:20N 43°06' E 015°10'719.1
2017-Jun-26 21:00N 43°12' E 015°05'1412970.2
2017-Jun-26 21:00N 43°24' E 014°54'3113.2 270 / 71013.010.8 25.0 26.0
2017-Jun-26 18:37N 43°53' E 014°36'319.2
2017-Jun-26 18:27N 43°56' E 014°34'919.1
2017-Jun-26 17:58N 44°04' E 014°29'1019.1
2017-Jun-26 17:26N 44°14' E 014°29'917.2
2017-Jun-26 16:54N 44°23' E 014°33'818.3
2017-Jun-26 16:27N 44°20' E 014°44'918.4
2017-Jun-26 15:58N 44°15' E 014°54'24 1.7
2017-Jun-26 01:48N 44°23' E 014°23'717.4
2017-Jun-26 01:23N 44°23' E 014°13'617.4
2017-Jun-26 01:00N 44°24' E 014°04'7463.9
2017-Jun-26 01:00N 44°24' E 013°54'2 3.7 020 / 61014.0 5.4 24.022.625.0
2017-Jun-26 00:30N 44°24' E 013°51'1116.0
2017-Jun-25 23:48N 44°31' E 013°39'413.1
2017-Jun-25 23:30N 44°34' E 013°36'612.8
2017-Jun-25 23:00N 44°40' E 013°31'612.9
2017-Jun-25 22:30N 44°45' E 013°26'612.9
2017-Jun-25 22:00N 44°50' E 013°21'612.8
2017-Jun-25 21:30N 44°56' E 013°16'612.4
2017-Jun-25 21:00N 45°01' E 013°11'612.4
2017-Jun-25 20:30N 45°06' E 013°06'612.1
2017-Jun-25 20:00N 45°11' E 013°02'5385.5
2017-Jun-25 20:00N 45°06' E 013°00'1122.5 020 / 31014.010.8 24.0 27.0
2017-Jun-25 19:30N 45°17' E 012°60'713.5
2017-Jun-25 19:00N 45°21' E 012°52'916.9
2017-Jun-25 18:30N 45°22' E 012°40'714.9
2017-Jun-25 18:00N 45°23' E 012°30'511.0
2017-Jun-25 17:30N 45°26' E 012°23'3 5.1
2017-Jun-25 17:00N 45°26' E 012°20'1 1.5
2017-Jun-25 16:19N 45°26' E 012°19'0 0.0
2017-Jun-25 14:43N 45°26' E 012°19'0 0.0
2017-Jun-25 08:34N 45°26' E 012°19'0 0.0
2017-Jun-25 06:49N 45°26' E 012°19'0 0.0
2017-Jun-25 06:28N 45°26' E 012°19'0 0.0
2017-Jun-25 01:49N 45°26' E 012°19'0 0.0
2017-Jun-25 01:19N 45°26' E 012°19'0 0.0
2017-Jun-25 00:49N 45°26' E 012°19'0 0.0
2017-Jun-25 00:22N 45°26' E 012°19'0 0.0
2017-Jun-24 23:34N 45°26' E 012°19'0 0.0
2017-Jun-24 22:10N 45°26' E 012°19'0 0.0
2017-Jun-24 19:10N 45°26' E 012°19'0 0.0
2017-Jun-24 16:52N 45°26' E 012°19'0 0.0
2017-Jun-24 16:31N 45°26' E 012°19'0 0.0
2017-Jun-24 15:52N 45°26' E 012°19'0 0.0
2017-Jun-24 15:28N 45°26' E 012°19'0 0.0
2017-Jun-24 14:43N 45°26' E 012°19'0 0.0
2017-Jun-24 14:28N 45°26' E 012°19'0 0.0
2017-Jun-24 12:40N 45°26' E 012°18'0 1.3
2017-Jun-24 12:30N 45°26' E 012°18'2 4.8
2017-Jun-24 12:00N 45°25' E 012°22'3 6.8
2017-Jun-24 11:30N 45°25' E 012°26'5 9.4
2017-Jun-24 11:01N 45°22' E 012°32'714.4
2017-Jun-24 10:30N 45°15' E 012°35'917.1
2017-Jun-24 10:00N 45°10' E 012°45'917.0
2017-Jun-24 09:30N 45°03' E 012°52'917.8
2017-Jun-24 09:00N 44°55' E 012°56'918.2
2017-Jun-24 08:30N 44°46' E 013°01'918.4
2017-Jun-24 08:00N 44°38' E 013°05'917.9
2017-Jun-24 07:30N 44°29' E 013°09'918.5
2017-Jun-24 07:00N 44°20' E 013°14'918.3
2017-Jun-24 06:30N 44°14' E 013°22'1018.9
2017-Jun-24 06:00N 44°08' E 013°33'918.6
2017-Jun-24 05:30N 44°02' E 013°43'1619.1
2017-Jun-24 04:41N 43°53' E 014°00'319.3
2017-Jun-24 04:30N 43°51' E 014°04'1019.2
2017-Jun-24 04:00N 43°44' E 014°14'1019.2
2017-Jun-24 03:29N 43°38' E 014°25'1019.1
2017-Jun-24 02:57N 43°31' E 014°35'819.3
2017-Jun-24 02:30N 43°24' E 014°42'1019.2
2017-Jun-24 02:00N 43°16' E 014°50'1019.3
2017-Jun-24 01:30N 43°09' E 014°58'1419.6
2017-Jun-24 00:46N 42°57' E 015°10'619.2
2017-Jun-24 00:27N 42°53' E 015°16'816.8
2017-Jun-24 00:00N 42°48' E 015°24'9719.4 070 / 91017.0 5.4 26.024.625.0
2017-Jun-23 19:00N 41°42' E 017°00'3320.1 220 / 81017.010.8 25.0 25.0
2017-Jun-23 17:20N 41°23' E 017°36'10917.1
2017-Jun-23 10:57N 39°39' E 018°22'919.5
2017-Jun-23 10:30N 39°33' E 018°13'1019.5
2017-Jun-23 09:58N 39°26' E 018°04'13819.7
2017-Jun-23 03:00N 37°48' E 016°00'2616.1 090 / 31019.0 5.4 24.022.624.0
2017-Jun-23 01:24N 38°03' E 015°34'13518.2
2017-Jun-22 18:00N 40°12' E 014°42'79 4.4 270 / 151019.010.8 25.0 25.0
2017-Jun-22 00:00N 40°42' E 013°06'8721.8 290 / 111019.0 5.4 24.022.625.0
2017-Jun-21 20:00N 41°42' E 011°42'20 1.2 260 / 91018.010.8 25.0 25.0
2017-Jun-21 02:52N 41°57' E 011°25'615.9
2017-Jun-21 02:28N 41°55' E 011°17'916.0
2017-Jun-21 01:54N 41°55' E 011°05'615.7
2017-Jun-21 01:30N 41°55' E 010°56'2516.2
2017-Jun-21 00:00N 42°00' E 010°24'495.2 210 / 101019.0 5.4 25.023.625.0
2017-Jun-20 23:57N 42°04' E 010°27'1916.1
2017-Jun-20 22:45N 42°15' E 010°06'416.5
2017-Jun-20 22:29N 42°17' E 010°01'715.7
2017-Jun-20 22:01N 42°22' E 009°54'5618.7
2017-Jun-20 19:00N 43°18' E 010°06'310.2 270 / 111019.010.8 26.0 24.0
2017-Jun-20 18:42N 43°15' E 010°04'316.4
2017-Jun-20 18:30N 43°18' E 010°05'816.3
2017-Jun-20 18:00N 43°26' E 010°07'714.8
2017-Jun-20 17:30N 43°32' E 010°14'3 5.1
2017-Jun-20 16:56N 43°33' E 010°18'0 0.0
2017-Jun-20 16:29N 43°33' E 010°18'0 0.0
2017-Jun-20 15:56N 43°33' E 010°18'0 0.0
2017-Jun-20 15:23N 43°33' E 010°18'0 0.0
2017-Jun-20 14:59N 43°33' E 010°18'0 0.0
2017-Jun-20 14:29N 43°33' E 010°18'0 0.0
2017-Jun-20 13:29N 43°33' E 010°18'0 0.0
2017-Jun-20 12:56N 43°33' E 010°18'0 0.0
2017-Jun-20 12:26N 43°33' E 010°18'0 0.0
2017-Jun-20 11:59N 43°33' E 010°18'0 0.0
2017-Jun-20 11:29N 43°33' E 010°18'0 0.0
2017-Jun-20 10:56N 43°33' E 010°18'0 0.0
2017-Jun-20 10:29N 43°33' E 010°18'0 0.0
2017-Jun-20 09:56N 43°33' E 010°18'0 0.0
2017-Jun-20 09:29N 43°33' E 010°18'0 0.0
2017-Jun-20 08:56N 43°33' E 010°18'0 0.0
2017-Jun-20 08:29N 43°33' E 010°18'0 0.0
2017-Jun-20 07:56N 43°33' E 010°18'0 0.0
2017-Jun-20 07:29N 43°33' E 010°18'0 0.0
2017-Jun-20 06:59N 43°33' E 010°18'0 0.0
2017-Jun-20 06:23N 43°33' E 010°18'0 0.0
2017-Jun-20 05:59N 43°33' E 010°18'0 0.0
2017-Jun-20 05:29N 43°33' E 010°18'0 0.0
2017-Jun-20 04:59N 43°33' E 010°18'0 0.0
2017-Jun-20 04:29N 43°33' E 010°18'1 1.7
2017-Jun-20 04:00N 43°32' E 010°17'4 8.4
2017-Jun-20 03:30N 43°30' E 010°13'612.8
2017-Jun-20 03:00N 43°29' E 010°04'713.3
2017-Jun-20 02:30N 43°31' E 009°55'713.3
2017-Jun-20 02:00N 43°31' E 009°46'612.1
2017-Jun-20 01:30N 43°32' E 009°38'713.4
2017-Jun-20 01:00N 43°32' E 009°29'8500.3
2017-Jun-20 01:00N 43°30' E 009°18'3 5.2 190 / 71021.0 5.4 24.022.623.0
2017-Jun-20 00:30N 43°32' E 009°20'612.6
2017-Jun-20 00:00N 43°32' E 009°11'612.4
2017-Jun-19 23:30N 43°32' E 009°03'612.7
2017-Jun-19 23:00N 43°32' E 008°54'612.7
2017-Jun-19 22:30N 43°32' E 008°45'612.8
2017-Jun-19 22:00N 43°32' E 008°36'612.6
2017-Jun-19 21:30N 43°32' E 008°28'712.9
2017-Jun-19 20:58N 43°31' E 008°18'613.2
2017-Jun-19 20:30N 43°31' E 008°10'712.9
2017-Jun-19 19:59N 43°31' E 008°00'712.6
2017-Jun-19 19:27N 43°31' E 007°51'714.5
2017-Jun-19 19:00N 43°30' E 007°42'145.8 260 / 51021.010.8 24.0 24.0
2017-Jun-19 18:58N 43°31' E 007°43'19 1.5
2017-Jun-19 06:15N 43°40' E 007°19'312.2
2017-Jun-19 05:59N 43°37' E 007°18'919.4
2017-Jun-19 05:30N 43°28' E 007°13'1019.2
2017-Jun-19 05:00N 43°21' E 007°04'919.1
2017-Jun-19 04:31N 43°13' E 006°57'918.9
2017-Jun-19 04:00N 43°06' E 006°48'918.5
2017-Jun-19 03:31N 42°60' E 006°39'1518.4
2017-Jun-19 02:42N 42°53' E 006°21'418.9
2017-Jun-19 02:30N 42°51' E 006°17'1019.1
2017-Jun-19 01:59N 42°46' E 006°05'2619.8
2017-Jun-19 00:41N 42°33' E 005°35'1522.2
2017-Jun-19 00:00N 42°24' E 005°18'2518.9 110 / 231020.0 5.4 25.023.622.0
2017-Jun-18 22:41N 42°14' E 004°48'4019.9
2017-Jun-18 20:41N 41°54' E 004°01'4425.8
2017-Jun-18 19:00N 41°30' E 003°12'849.7 090 / 71018.010.8 23.0 24.0
2017-Jun-18 18:50N 41°36' E 003°18'719.3
2017-Jun-18 18:29N 41°33' E 003°10'1019.0
2017-Jun-18 17:56N 41°29' E 002°57'919.5
2017-Jun-18 17:30N 41°26' E 002°47'1019.8
2017-Jun-18 17:00N 41°22' E 002°35'  
Track history (hours):
 
Tides and Currents Weather Stations Pressure Air Temp Water Temp Dewpoint Dewpoint Depression Visibility Wind Speed Wind Dir Waves Ship Positions

Brilliance Of The Seas

Operator: Royal Caribbean Cruises Ltd

Last reported at 2017-Jun-28 17:00 UTC. Time now 2017-Jun-28 17:13 UTC.
Position N 38°20' E 014°39'.

Type: Ship. MMSI: 311361000.

Date/timePositionNaut miles runAvg speedWind from/ knotsBaromVisibWave heightAir tempDewpointWater temp
2017-Jun-28 17:00N 38°20' E 014°39'1619.3
2017-Jun-28 16:10N 38°19' E 014°60'319.4
2017-Jun-28 16:00N 38°19' E 015°04'1019.4
2017-Jun-28 15:30N 38°20' E 015°16'1019.1
2017-Jun-28 15:00N 38°20' E 015°28'9 9.2
2017-Jun-28 13:58N 38°14' E 015°37'2316.4
2017-Jun-28 12:34N 37°52' E 015°48'519.3
2017-Jun-28 12:19N 37°52' E 015°54'11317.8
2017-Jun-28 06:00N 39°00' E 017°48'2422.6 210 / 13
2017-Jun-28 04:56N 39°19' E 018°07'819.1
2017-Jun-28 04:30N 39°25' E 018°14'1019.0
2017-Jun-28 03:59N 39°32' E 018°23'919.0
2017-Jun-28 03:30N 39°41' E 018°28'1018.9
2017-Jun-28 02:59N 39°50' E 018°32'5217.5
2017-Jun-28 00:00N 40°42' E 018°36'6622.1 170 / 261011.0 5.4 26.023.226.0
2017-Jun-27 21:00N 41°48' E 018°30'119 5.7 130 / 171011.010.8 26.0 27.0
2017-Jun-27 00:00N 42°42' E 016°06'2217.0 260 / 121013.0 5.4 25.023.625.0
2017-Jun-26 22:40N 42°54' E 015°40'518.8
2017-Jun-26 22:25N 42°56' E 015°34'918.8
2017-Jun-26 21:58N 43°00' E 015°24'1219.3
2017-Jun-26 21:20N 43°06' E 015°10'719.1
2017-Jun-26 21:00N 43°12' E 015°05'1412970.2
2017-Jun-26 21:00N 43°24' E 014°54'3113.2 270 / 71013.010.8 25.0 26.0
2017-Jun-26 18:37N 43°53' E 014°36'319.2
2017-Jun-26 18:27N 43°56' E 014°34'919.1
2017-Jun-26 17:58N 44°04' E 014°29'1019.1
2017-Jun-26 17:26N 44°14' E 014°29'917.2
2017-Jun-26 16:54N 44°23' E 014°33'818.3
2017-Jun-26 16:27N 44°20' E 014°44'918.4
2017-Jun-26 15:58N 44°15' E 014°54'24 1.7
2017-Jun-26 01:48N 44°23' E 014°23'717.4
2017-Jun-26 01:23N 44°23' E 014°13'617.4
2017-Jun-26 01:00N 44°24' E 014°04'7463.9
2017-Jun-26 01:00N 44°24' E 013°54'2 3.7 020 / 61014.0 5.4 24.022.625.0
2017-Jun-26 00:30N 44°24' E 013°51'1116.0
2017-Jun-25 23:48N 44°31' E 013°39'413.1
2017-Jun-25 23:30N 44°34' E 013°36'612.8
2017-Jun-25 23:00N 44°40' E 013°31'612.9
2017-Jun-25 22:30N 44°45' E 013°26'612.9
2017-Jun-25 22:00N 44°50' E 013°21'612.8
2017-Jun-25 21:30N 44°56' E 013°16'612.4
2017-Jun-25 21:00N 45°01' E 013°11'612.4
2017-Jun-25 20:30N 45°06' E 013°06'612.1
2017-Jun-25 20:00N 45°11' E 013°02'5385.5
2017-Jun-25 20:00N 45°06' E 013°00'1122.5 020 / 31014.010.8 24.0 27.0
2017-Jun-25 19:30N 45°17' E 012°60'713.5
2017-Jun-25 19:00N 45°21' E 012°52'916.9
2017-Jun-25 18:30N 45°22' E 012°40'714.9
2017-Jun-25 18:00N 45°23' E 012°30'511.0
2017-Jun-25 17:30N 45°26' E 012°23'3 5.1
2017-Jun-25 17:00N 45°26' E 012°20'1 1.5
2017-Jun-25 16:19N 45°26' E 012°19'0 0.0
2017-Jun-25 14:43N 45°26' E 012°19'0 0.0
2017-Jun-25 08:34N 45°26' E 012°19'0 0.0
2017-Jun-25 06:49N 45°26' E 012°19'0 0.0
2017-Jun-25 06:28N 45°26' E 012°19'0 0.0
2017-Jun-25 01:49N 45°26' E 012°19'0 0.0
2017-Jun-25 01:19N 45°26' E 012°19'0 0.0
2017-Jun-25 00:49N 45°26' E 012°19'0 0.0
2017-Jun-25 00:22N 45°26' E 012°19'0 0.0
2017-Jun-24 23:34N 45°26' E 012°19'0 0.0
2017-Jun-24 22:10N 45°26' E 012°19'0 0.0
2017-Jun-24 19:10N 45°26' E 012°19'0 0.0
2017-Jun-24 16:52N 45°26' E 012°19'0 0.0
2017-Jun-24 16:31N 45°26' E 012°19'0 0.0
2017-Jun-24 15:52N 45°26' E 012°19'0 0.0
2017-Jun-24 15:28N 45°26' E 012°19'0 0.0
2017-Jun-24 14:43N 45°26' E 012°19'0 0.0
2017-Jun-24 14:28N 45°26' E 012°19'0 0.0
2017-Jun-24 12:40N 45°26' E 012°18'0 1.3
2017-Jun-24 12:30N 45°26' E 012°18'2 4.8
2017-Jun-24 12:00N 45°25' E 012°22'3 6.8
2017-Jun-24 11:30N 45°25' E 012°26'5 9.4
2017-Jun-24 11:01N 45°22' E 012°32'714.4
2017-Jun-24 10:30N 45°15' E 012°35'917.1
2017-Jun-24 10:00N 45°10' E 012°45'917.0
2017-Jun-24 09:30N 45°03' E 012°52'917.8
2017-Jun-24 09:00N 44°55' E 012°56'918.2
2017-Jun-24 08:30N 44°46' E 013°01'918.4
2017-Jun-24 08:00N 44°38' E 013°05'917.9
2017-Jun-24 07:30N 44°29' E 013°09'918.5
2017-Jun-24 07:00N 44°20' E 013°14'918.3
2017-Jun-24 06:30N 44°14' E 013°22'1018.9
2017-Jun-24 06:00N 44°08' E 013°33'918.6
2017-Jun-24 05:30N 44°02' E 013°43'1619.1
2017-Jun-24 04:41N 43°53' E 014°00'319.3
2017-Jun-24 04:30N 43°51' E 014°04'1019.2
2017-Jun-24 04:00N 43°44' E 014°14'1019.2
2017-Jun-24 03:29N 43°38' E 014°25'1019.1
2017-Jun-24 02:57N 43°31' E 014°35'819.3
2017-Jun-24 02:30N 43°24' E 014°42'1019.2
2017-Jun-24 02:00N 43°16' E 014°50'1019.3
2017-Jun-24 01:30N 43°09' E 014°58'1419.6
2017-Jun-24 00:46N 42°57' E 015°10'619.2
2017-Jun-24 00:27N 42°53' E 015°16'816.8
2017-Jun-24 00:00N 42°48' E 015°24'9719.4 070 / 91017.0 5.4 26.024.625.0
2017-Jun-23 19:00N 41°42' E 017°00'3320.1 220 / 81017.010.8 25.0 25.0
2017-Jun-23 17:20N 41°23' E 017°36'10917.1
2017-Jun-23 10:57N 39°39' E 018°22'919.5
2017-Jun-23 10:30N 39°33' E 018°13'1019.5
2017-Jun-23 09:58N 39°26' E 018°04'13819.7
2017-Jun-23 03:00N 37°48' E 016°00'2616.1 090 / 31019.0 5.4 24.022.624.0
2017-Jun-23 01:24N 38°03' E 015°34'13518.2
2017-Jun-22 18:00N 40°12' E 014°42'79 4.4 270 / 151019.010.8 25.0 25.0
2017-Jun-22 00:00N 40°42' E 013°06'8721.8 290 / 111019.0 5.4 24.022.625.0
2017-Jun-21 20:00N 41°42' E 011°42'20 1.2 260 / 91018.010.8 25.0 25.0
2017-Jun-21 02:52N 41°57' E 011°25'615.9
2017-Jun-21 02:28N 41°55' E 011°17'916.0
2017-Jun-21 01:54N 41°55' E 011°05'615.7
2017-Jun-21 01:30N 41°55' E 010°56'2516.2
2017-Jun-21 00:00N 42°00' E 010°24'495.2 210 / 101019.0 5.4 25.023.625.0
2017-Jun-20 23:57N 42°04' E 010°27'1916.1
2017-Jun-20 22:45N 42°15' E 010°06'416.5
2017-Jun-20 22:29N 42°17' E 010°01'715.7
2017-Jun-20 22:01N 42°22' E 009°54'5618.7
2017-Jun-20 19:00N 43°18' E 010°06'310.2 270 / 111019.010.8 26.0 24.0
2017-Jun-20 18:42N 43°15' E 010°04'316.4
2017-Jun-20 18:30N 43°18' E 010°05'816.3
2017-Jun-20 18:00N 43°26' E 010°07'714.8
2017-Jun-20 17:30N 43°32' E 010°14'3 5.1
2017-Jun-20 16:56N 43°33' E 010°18'0 0.0
2017-Jun-20 16:29N 43°33' E 010°18'0 0.0
2017-Jun-20 15:56N 43°33' E 010°18'0 0.0
2017-Jun-20 15:23N 43°33' E 010°18'0 0.0
2017-Jun-20 14:59N 43°33' E 010°18'0 0.0
2017-Jun-20 14:29N 43°33' E 010°18'0 0.0
2017-Jun-20 13:29N 43°33' E 010°18'0 0.0
2017-Jun-20 12:56N 43°33' E 010°18'0 0.0
2017-Jun-20 12:26N 43°33' E 010°18'0 0.0
2017-Jun-20 11:59N 43°33' E 010°18'0 0.0
2017-Jun-20 11:29N 43°33' E 010°18'0 0.0
2017-Jun-20 10:56N 43°33' E 010°18'0 0.0
2017-Jun-20 10:29N 43°33' E 010°18'0 0.0
2017-Jun-20 09:56N 43°33' E 010°18'0 0.0
2017-Jun-20 09:29N 43°33' E 010°18'0 0.0
2017-Jun-20 08:56N 43°33' E 010°18'0 0.0
2017-Jun-20 08:29N 43°33' E 010°18'0 0.0
2017-Jun-20 07:56N 43°33' E 010°18'0 0.0
2017-Jun-20 07:29N 43°33' E 010°18'0 0.0
2017-Jun-20 06:59N 43°33' E 010°18'0 0.0
2017-Jun-20 06:23N 43°33' E 010°18'0 0.0
2017-Jun-20 05:59N 43°33' E 010°18'0 0.0
2017-Jun-20 05:29N 43°33' E 010°18'0 0.0
2017-Jun-20 04:59N 43°33' E 010°18'0 0.0
2017-Jun-20 04:29N 43°33' E 010°18'1 1.7
2017-Jun-20 04:00N 43°32' E 010°17'4 8.4
2017-Jun-20 03:30N 43°30' E 010°13'612.8
2017-Jun-20 03:00N 43°29' E 010°04'713.3
2017-Jun-20 02:30N 43°31' E 009°55'713.3
2017-Jun-20 02:00N 43°31' E 009°46'612.1
2017-Jun-20 01:30N 43°32' E 009°38'713.4
2017-Jun-20 01:00N 43°32' E 009°29'8500.3
2017-Jun-20 01:00N 43°30' E 009°18'3 5.2 190 / 71021.0 5.4 24.022.623.0
2017-Jun-20 00:30N 43°32' E 009°20'612.6
2017-Jun-20 00:00N 43°32' E 009°11'612.4
2017-Jun-19 23:30N 43°32' E 009°03'612.7
2017-Jun-19 23:00N 43°32' E 008°54'612.7
2017-Jun-19 22:30N 43°32' E 008°45'612.8
2017-Jun-19 22:00N 43°32' E 008°36'612.6
2017-Jun-19 21:30N 43°32' E 008°28'712.9
2017-Jun-19 20:58N 43°31' E 008°18'613.2
2017-Jun-19 20:30N 43°31' E 008°10'712.9
2017-Jun-19 19:59N 43°31' E 008°00'712.6
2017-Jun-19 19:27N 43°31' E 007°51'714.5
2017-Jun-19 19:00N 43°30' E 007°42'145.8 260 / 51021.010.8 24.0 24.0
2017-Jun-19 18:58N 43°31' E 007°43'19 1.5
2017-Jun-19 06:15N 43°40' E 007°19'312.2
2017-Jun-19 05:59N 43°37' E 007°18'919.4
2017-Jun-19 05:30N 43°28' E 007°13'1019.2
2017-Jun-19 05:00N 43°21' E 007°04'919.1
2017-Jun-19 04:31N 43°13' E 006°57'918.9
2017-Jun-19 04:00N 43°06' E 006°48'918.5
2017-Jun-19 03:31N 42°60' E 006°39'1518.4
2017-Jun-19 02:42N 42°53' E 006°21'418.9
2017-Jun-19 02:30N 42°51' E 006°17'1019.1
2017-Jun-19 01:59N 42°46' E 006°05'2619.8
2017-Jun-19 00:41N 42°33' E 005°35'1522.2
2017-Jun-19 00:00N 42°24' E 005°18'2518.9 110 / 231020.0 5.4 25.023.622.0
2017-Jun-18 22:41N 42°14' E 004°48'4019.9
2017-Jun-18 20:41N 41°54' E 004°01'4425.8
2017-Jun-18 19:00N 41°30' E 003°12'849.7 090 / 71018.010.8 23.0 24.0
2017-Jun-18 18:50N 41°36' E 003°18'719.3
2017-Jun-18 18:29N 41°33' E 003°10'1019.0
2017-Jun-18 17:56N 41°29' E 002°57'919.5
2017-Jun-18 17:30N 41°26' E 002°47'1019.8
2017-Jun-18 17:00N 41°22' E 002°35'  

Dump ship's entire track history